createdAt,value
2023-02-09T00:01:54.874Z,101955.09
2023-02-09T00:04:58.650Z,101962.19
2023-02-09T00:08:02.616Z,101957.81
2023-02-09T00:11:11.312Z,101973.47
2023-02-09T00:14:18.217Z,101966.88
2023-02-09T00:17:24.083Z,101971.94
2023-02-09T00:20:27.782Z,101976.06
2023-02-09T00:23:34.033Z,101976.50
2023-02-09T00:26:38.609Z,101977.22
2023-02-09T00:29:44.067Z,101973.91
2023-02-09T00:32:48.049Z,101969.50
2023-02-09T00:35:52.001Z,101965.16
2023-02-09T00:38:56.453Z,101964.13
2023-02-09T00:42:11.360Z,101957.53
2023-02-09T00:45:16.765Z,101962.97
2023-02-09T00:48:20.619Z,101960.31
2023-02-09T00:51:24.499Z,101961.22
2023-02-09T00:54:28.249Z,101960.50
2023-02-09T00:57:32.862Z,101953.59
2023-02-09T01:00:38.209Z,101957.13
2023-02-09T01:03:43.516Z,101955.47
2023-02-09T01:06:47.481Z,101954.50
2023-02-09T01:09:53.456Z,101949.81
2023-02-09T01:12:57.186Z,101946.66
2023-02-09T01:16:06.355Z,101948.44
2023-02-09T01:19:12.885Z,101947.41
2023-02-09T01:22:16.753Z,101945.69
2023-02-09T01:25:22.005Z,101943.16
2023-02-09T01:28:25.952Z,101942.44
2023-02-09T01:31:34.150Z,101948.91
2023-02-09T01:34:38.244Z,101948.84
2023-02-09T01:37:42.131Z,101942.09
2023-02-09T01:40:48.930Z,101945.34
2023-02-09T01:43:55.368Z,101944.25
2023-02-09T01:47:00.826Z,101939.88
2023-02-09T01:50:08.134Z,101934.09
2023-02-09T01:53:12.658Z,101938.13
2023-02-09T01:56:22.985Z,101934.78
2023-02-09T01:59:27.277Z,101930.50
2023-02-09T02:02:32.860Z,101928.50
2023-02-09T02:05:41.529Z,101933.59
2023-02-09T02:08:50.191Z,101931.81
2023-02-09T02:11:54.228Z,101926.38
2023-02-09T02:14:58.016Z,101934.31
2023-02-09T02:18:19.163Z,101939.13
2023-02-09T02:21:45.756Z,101933.00
2023-02-09T02:25:24.700Z,101931.88
2023-02-09T02:28:54.472Z,101931.88
2023-02-09T02:32:14.563Z,101923.97
2023-02-09T02:35:25.516Z,101922.94
2023-02-09T02:38:36.054Z,101921.59
2023-02-09T02:42:20.930Z,101906.94
2023-02-09T02:45:40.046Z,101904.53
2023-02-09T02:48:53.310Z,101910.72
2023-02-09T02:52:02.186Z,101909.69
2023-02-09T02:55:10.777Z,101904.94
2023-02-09T02:58:16.528Z,101907.75
2023-02-09T03:01:26.274Z,101906.72
2023-02-09T03:04:32.741Z,101898.53
2023-02-09T03:07:36.675Z,101901.09
2023-02-09T03:10:43.120Z,101896.72
2023-02-09T03:14:07.748Z,101896.91
2023-02-09T03:17:28.589Z,101895.28
2023-02-09T03:20:43.740Z,101892.63
2023-02-09T03:23:53.802Z,101891.75
2023-02-09T03:27:02.552Z,101889.00
2023-02-09T03:30:08.738Z,101885.69
2023-02-09T03:33:21.290Z,101887.38
2023-02-09T03:36:34.328Z,101887.19
2023-02-09T03:39:38.167Z,101880.44
2023-02-09T03:42:41.942Z,101878.44
2023-02-09T03:45:45.759Z,101871.56
2023-02-09T03:48:50.250Z,101879.63
2023-02-09T03:51:56.134Z,101882.75
2023-02-09T03:55:00.028Z,101865.66
2023-02-09T03:58:04.650Z,101872.50
2023-02-09T04:01:10.328Z,101864.84
2023-02-09T04:04:13.976Z,101867.28
2023-02-09T04:07:19.229Z,101872.31
2023-02-09T04:10:23.037Z,101867.13
2023-02-09T04:13:27.552Z,101864.22
2023-02-09T04:16:31.707Z,101868.59
2023-02-09T04:19:35.507Z,101860.81
2023-02-09T04:22:41.283Z,101866.47
2023-02-09T04:25:45.212Z,101871.84
2023-02-09T04:28:49.290Z,101872.59
2023-02-09T04:31:53.352Z,101879.44
2023-02-09T04:34:57.072Z,101876.28
2023-02-09T04:38:02.317Z,101877.28
2023-02-09T04:41:06.758Z,101881.38
2023-02-09T04:44:11.269Z,101879.00
2023-02-09T04:47:14.892Z,101879.44
2023-02-09T04:50:18.912Z,101876.00
2023-02-09T04:53:24.829Z,101868.38
2023-02-09T04:56:28.572Z,101869.66
2023-02-09T04:59:39.363Z,101877.06
2023-02-09T05:02:43.173Z,101881.25
2023-02-09T05:05:46.980Z,101878.69
2023-02-09T05:08:52.279Z,101883.81
2023-02-09T05:11:56.073Z,101886.50
2023-02-09T05:14:59.840Z,101900.44
2023-02-09T05:18:03.671Z,101904.03
2023-02-09T05:21:07.588Z,101903.38
2023-02-09T05:24:12.807Z,101899.88
2023-02-09T05:27:16.580Z,101899.91
2023-02-09T05:30:20.559Z,101908.47
2023-02-09T05:33:25.785Z,101903.31
2023-02-09T05:36:29.585Z,101899.00
2023-02-09T05:39:34.770Z,101904.13
2023-02-09T05:42:38.590Z,101911.56
2023-02-09T05:45:42.272Z,101909.34
2023-02-09T05:48:45.964Z,101904.22
2023-02-09T05:51:49.648Z,101912.56
2023-02-09T05:54:54.989Z,101910.13
2023-02-09T05:57:58.732Z,101907.50
2023-02-09T06:01:02.576Z,101913.50
2023-02-09T06:04:06.863Z,101917.13
2023-02-09T06:07:12.056Z,101917.81
2023-02-09T06:10:18.639Z,101915.28
2023-02-09T06:13:22.517Z,101920.88
2023-02-09T06:16:26.468Z,101915.44
2023-02-09T06:19:30.434Z,101914.88
2023-02-09T06:22:34.403Z,101918.41
2023-02-09T06:25:42.317Z,101900.09
2023-02-09T06:28:46.437Z,101907.63
2023-02-09T06:31:50.448Z,101908.81
2023-02-09T06:34:54.465Z,101905.50
2023-02-09T06:37:58.778Z,101907.91
2023-02-09T06:41:04.328Z,101899.66
2023-02-09T06:44:08.306Z,101914.34
2023-02-09T06:47:12.197Z,101912.19
2023-02-09T06:50:17.323Z,101910.84
2023-02-09T06:53:21.489Z,101913.47
2023-02-09T06:56:26.868Z,101911.56
2023-02-09T06:59:30.683Z,101912.84
2023-02-09T07:02:34.639Z,101909.06
2023-02-09T07:05:38.589Z,101909.75
2023-02-09T07:08:43.330Z,101910.22
2023-02-09T07:11:48.702Z,101903.34
2023-02-09T07:14:52.537Z,101906.94
2023-02-09T07:17:56.331Z,101902.00
2023-02-09T07:21:01.996Z,101901.41
2023-02-09T07:24:06.568Z,101909.16
2023-02-09T07:27:11.943Z,101917.44
2023-02-09T07:30:17.035Z,101920.00
2023-02-09T07:33:21.067Z,101918.91
2023-02-09T07:36:25.007Z,101918.00
2023-02-09T07:39:29.536Z,101923.00
2023-02-09T07:42:35.085Z,101913.34
2023-02-09T07:45:39.743Z,101912.69
2023-02-09T07:48:43.994Z,101915.06
2023-02-09T07:51:47.893Z,101906.00
2023-02-09T07:54:52.038Z,101907.09
2023-02-09T07:57:57.450Z,101903.84
2023-02-09T08:01:06.858Z,101905.41
2023-02-09T08:04:10.752Z,101907.47
2023-02-09T08:07:14.662Z,101896.31
2023-02-09T08:10:19.873Z,101901.31
2023-02-09T08:13:26.992Z,101904.94
2023-02-09T08:16:33.424Z,101905.81
2023-02-09T08:19:37.344Z,101898.44
2023-02-09T08:22:44.015Z,101899.13
2023-02-09T08:25:51.661Z,101893.41
2023-02-09T08:28:58.226Z,101893.19
2023-02-09T08:32:02.118Z,101898.25
2023-02-09T08:35:07.215Z,101882.72
2023-02-09T08:38:11.253Z,101887.41
2023-02-09T08:41:16.995Z,101881.31
2023-02-09T08:44:22.394Z,101885.00
2023-02-09T08:47:26.274Z,101879.28
2023-02-09T08:50:30.147Z,101876.84
2023-02-09T08:53:34.525Z,101870.06
2023-02-09T08:56:38.484Z,101872.22
2023-02-09T08:59:43.787Z,101871.66
2023-02-09T09:02:47.733Z,101871.19
2023-02-09T09:05:51.698Z,101875.53
2023-02-09T09:08:55.548Z,101868.59
2023-02-09T09:11:59.495Z,101870.56
2023-02-09T09:15:05.175Z,101869.50
2023-02-09T09:18:09.149Z,101864.78
2023-02-09T09:21:13.429Z,101859.81
2023-02-09T09:24:17.679Z,101856.78
2023-02-09T09:27:21.578Z,101849.75
2023-02-09T09:30:27.040Z,101849.34
2023-02-09T09:33:30.937Z,101849.34
2023-02-09T09:36:34.830Z,101840.63
2023-02-09T09:39:38.689Z,101837.06
2023-02-09T09:42:46.030Z,101837.94
2023-02-09T09:45:52.332Z,101834.56
2023-02-09T09:48:59.522Z,101826.13
2023-02-09T09:52:08.652Z,101828.34
2023-02-09T09:55:23.934Z,101818.78
2023-02-09T09:58:30.380Z,101812.94
2023-02-09T10:01:35.757Z,101812.28
2023-02-09T10:04:39.775Z,101798.84
2023-02-09T10:07:47.107Z,101804.00
2023-02-09T10:10:58.450Z,101788.03
2023-02-09T10:14:02.353Z,101788.75
2023-02-09T10:17:07.838Z,101787.34
2023-02-09T10:20:12.740Z,101789.00
2023-02-09T10:23:18.857Z,101781.53
2023-02-09T10:26:26.262Z,101776.91
2023-02-09T10:29:30.046Z,101775.41
2023-02-09T10:32:42.517Z,101776.91
2023-02-09T10:35:51.252Z,101768.47
2023-02-09T10:39:05.947Z,101771.53
2023-02-09T10:42:20.633Z,101767.16
2023-02-09T10:45:29.182Z,101761.78
2023-02-09T10:48:42.323Z,101757.09
2023-02-09T10:51:46.276Z,101758.75
2023-02-09T10:54:52.962Z,101753.16
2023-02-09T10:58:15.791Z,101750.31
2023-02-09T11:01:23.481Z,101756.72
2023-02-09T11:04:38.476Z,101753.63
2023-02-09T11:07:44.226Z,101747.38
2023-02-09T11:11:00.628Z,101743.41
2023-02-09T11:14:04.997Z,101744.03
2023-02-09T11:17:18.525Z,101739.75
2023-02-09T11:20:33.948Z,101734.06
2023-02-09T11:23:47.257Z,101728.41
2023-02-09T11:26:54.928Z,101729.22
2023-02-09T11:30:17.285Z,101716.44
2023-02-09T11:33:27.549Z,101714.25
2023-02-09T11:36:47.219Z,101713.44
2023-02-09T11:39:59.557Z,101707.19
2023-02-09T11:43:20.368Z,101707.69
2023-02-09T11:46:26.906Z,101708.38
2023-02-09T11:49:39.518Z,101701.81
2023-02-09T11:52:52.390Z,101702.66
2023-02-09T11:55:59.346Z,101691.19
2023-02-09T11:59:10.353Z,101693.56
2023-02-09T12:02:29.641Z,101693.78
2023-02-09T12:05:33.971Z,101687.84
2023-02-09T12:08:52.338Z,101680.72
2023-02-09T12:12:06.378Z,101681.88
2023-02-09T12:15:17.655Z,101676.94
2023-02-09T12:18:24.560Z,101681.06
2023-02-09T12:21:32.667Z,101692.66
2023-02-09T12:24:42.012Z,101674.22
2023-02-09T12:28:11.718Z,101678.78
2023-02-09T12:31:25.207Z,101661.78
2023-02-09T12:34:40.785Z,101664.59
2023-02-09T12:38:09.928Z,101663.94
2023-02-09T12:41:15.391Z,101654.69
2023-02-09T12:44:39.942Z,101651.88
2023-02-09T12:47:59.693Z,101656.72
2023-02-09T12:51:03.700Z,101654.19
2023-02-09T12:54:36.651Z,101657.72
2023-02-09T12:57:53.599Z,101646.00
2023-02-09T13:00:58.224Z,101642.38
2023-02-09T13:04:06.131Z,101642.66
2023-02-09T13:07:24.987Z,101640.78
2023-02-09T13:10:35.070Z,101641.00
2023-02-09T13:13:49.667Z,101635.31
2023-02-09T13:17:22.960Z,101639.69
2023-02-09T13:21:05.911Z,101631.50
2023-02-09T13:24:12.031Z,101631.19
2023-02-09T13:27:20.515Z,101629.50
2023-02-09T13:30:30.374Z,101622.84
2023-02-09T13:33:45.950Z,101620.63
2023-02-09T13:36:57.311Z,101624.34
2023-02-09T13:40:03.485Z,101631.72
2023-02-09T13:43:18.765Z,101626.06
2023-02-09T13:46:29.182Z,101618.91
2023-02-09T13:49:33.099Z,101621.00
2023-02-09T13:52:39.410Z,101610.16
2023-02-09T13:55:45.877Z,101614.78
2023-02-09T13:58:50.902Z,101610.50
2023-02-09T14:01:56.897Z,101613.75
2023-02-09T14:05:04.381Z,101621.63
2023-02-09T14:08:09.361Z,101611.22
2023-02-09T14:11:41.189Z,101613.03
2023-02-09T14:15:11.419Z,101608.47
2023-02-09T14:18:35.367Z,101606.72
2023-02-09T14:21:48.355Z,101604.91
2023-02-09T14:24:52.220Z,101606.28
2023-02-09T14:27:57.450Z,101606.38
2023-02-09T14:31:01.739Z,101610.38
2023-02-09T14:34:21.758Z,101607.13
2023-02-09T14:37:35.248Z,101609.31
2023-02-09T14:40:39.207Z,101608.56
2023-02-09T14:43:43.086Z,101605.09
2023-02-09T14:46:52.251Z,101604.81
2023-02-09T14:49:58.679Z,101611.31
2023-02-09T14:53:07.539Z,101603.91
2023-02-09T14:56:23.173Z,101615.97
2023-02-09T14:59:27.081Z,101608.59
2023-02-09T15:02:30.956Z,101616.59
2023-02-09T15:05:36.797Z,101620.94
2023-02-09T15:08:40.992Z,101611.88
2023-02-09T15:12:02.129Z,101619.38
2023-02-09T15:15:06.589Z,101618.78
2023-02-09T15:18:20.034Z,101617.03
2023-02-09T15:21:25.460Z,101624.91
2023-02-09T15:24:29.322Z,101612.56
2023-02-09T15:27:36.686Z,101615.81
2023-02-09T15:30:40.508Z,101624.63
2023-02-09T15:33:44.715Z,101622.19
2023-02-09T15:36:50.384Z,101626.06
2023-02-09T15:39:57.455Z,101624.09
2023-02-09T15:43:18.743Z,101628.50
2023-02-09T15:46:40.393Z,101625.81
2023-02-09T15:49:44.340Z,101620.13
2023-02-09T15:52:49.704Z,101627.03
2023-02-09T15:55:54.513Z,101626.56
2023-02-09T15:59:03.942Z,101629.25
2023-02-09T16:02:13.566Z,101632.97
2023-02-09T16:05:17.853Z,101628.84
2023-02-09T16:08:25.296Z,101637.19
2023-02-09T16:11:33.279Z,101640.94
2023-02-09T16:14:37.300Z,101644.59
2023-02-09T16:17:41.215Z,101651.41
2023-02-09T16:20:48.754Z,101642.00
2023-02-09T16:23:55.844Z,101646.13
2023-02-09T16:27:01.384Z,101646.25
2023-02-09T16:30:16.597Z,101644.13
2023-02-09T16:33:20.997Z,101646.31
2023-02-09T16:36:28.073Z,101650.88
2023-02-09T16:39:33.492Z,101654.31
2023-02-09T16:42:37.557Z,101647.47
2023-02-09T16:45:44.721Z,101660.44
2023-02-09T16:48:53.177Z,101656.06
2023-02-09T16:51:58.220Z,101653.63
2023-02-09T16:55:24.229Z,101652.72
2023-02-09T16:58:28.500Z,101656.75
2023-02-09T17:01:34.728Z,101660.78
2023-02-09T17:04:40.449Z,101662.66
2023-02-09T17:07:53.876Z,101677.19
2023-02-09T17:11:01.885Z,101676.78
2023-02-09T17:14:06.668Z,101675.66
2023-02-09T17:17:17.829Z,101682.19
2023-02-09T17:20:24.198Z,101679.53
2023-02-09T17:23:30.682Z,101683.78
2023-02-09T17:26:36.430Z,101680.03
2023-02-09T17:29:40.369Z,101684.34
2023-02-09T17:32:45.899Z,101686.22
2023-02-09T17:36:22.276Z,101693.13
2023-02-09T17:39:14.235Z,101693.19
2023-02-09T17:42:23.919Z,101700.94
2023-02-09T17:45:34.733Z,101704.59
2023-02-09T17:48:38.868Z,101708.09
2023-02-09T17:51:46.278Z,101699.25
2023-02-09T17:54:51.241Z,101703.59
2023-02-09T17:57:58.729Z,101714.97
2023-02-09T18:01:02.755Z,101706.94
2023-02-09T18:04:06.905Z,101710.63
2023-02-09T18:07:11.128Z,101722.13
2023-02-09T18:10:15.860Z,101723.91
2023-02-09T18:13:23.879Z,101730.97
2023-02-09T18:16:27.823Z,101739.41
2023-02-09T18:19:33.208Z,101731.66
2023-02-09T18:22:37.090Z,101740.69
2023-02-09T18:25:41.110Z,101745.22
2023-02-09T18:28:46.528Z,101741.25
2023-02-09T18:31:50.688Z,101733.16
2023-02-09T18:34:54.498Z,101736.69
2023-02-09T18:37:58.655Z,101731.50
2023-02-09T18:41:02.696Z,101731.50
2023-02-09T18:44:08.108Z,101732.28
2023-02-09T18:47:12.787Z,101727.84
2023-02-09T18:50:18.764Z,101725.19
2023-02-09T18:53:22.602Z,101729.94
2023-02-09T18:56:28.526Z,101728.16
2023-02-09T18:59:34.323Z,101717.28
2023-02-09T19:02:38.279Z,101728.88
2023-02-09T19:05:42.839Z,101723.44
2023-02-09T19:08:46.739Z,101721.00
2023-02-09T19:11:50.678Z,101715.44
2023-02-09T19:14:56.012Z,101709.09
2023-02-09T19:18:00.194Z,101708.50
2023-02-09T19:21:05.989Z,101716.13
2023-02-09T19:24:09.895Z,101713.44
2023-02-09T19:27:14.229Z,101711.78
2023-02-09T19:30:24.970Z,101714.47
2023-02-09T19:33:28.958Z,101716.66
2023-02-09T19:36:32.810Z,101717.34
2023-02-09T19:39:38.860Z,101722.00
2023-02-09T19:42:42.749Z,101714.41
2023-02-09T19:45:48.365Z,101720.69
2023-02-09T19:48:54.012Z,101720.31
2023-02-09T19:51:57.913Z,101725.50
2023-02-09T19:55:01.861Z,101722.63
2023-02-09T19:58:05.659Z,101719.75
2023-02-09T20:01:12.561Z,101714.97
2023-02-09T20:04:16.447Z,101723.84
2023-02-09T20:07:20.300Z,101724.56
2023-02-09T20:10:25.770Z,101729.91
2023-02-09T20:13:29.877Z,101730.91
2023-02-09T20:16:35.311Z,101724.66
2023-02-09T20:19:39.528Z,101715.22
2023-02-09T20:22:43.489Z,101723.97
2023-02-09T20:25:47.387Z,101716.53
2023-02-09T20:28:51.951Z,101722.97
2023-02-09T20:31:57.732Z,101727.84
2023-02-09T20:35:01.749Z,101716.91
2023-02-09T20:38:05.713Z,101728.72
2023-02-09T20:41:10.773Z,101717.03
2023-02-09T20:44:31.951Z,101719.19
2023-02-09T20:47:37.227Z,101704.00
2023-02-09T20:50:41.457Z,101713.53
2023-02-09T20:53:45.268Z,101709.03
2023-02-09T20:56:49.283Z,101715.03
2023-02-09T20:59:53.323Z,101718.03
2023-02-09T21:02:58.888Z,101726.81
2023-02-09T21:06:02.748Z,101723.47
2023-02-09T21:09:07.021Z,101712.66
2023-02-09T21:12:10.928Z,101718.59
2023-02-09T21:15:15.017Z,101719.69
2023-02-09T21:18:21.919Z,101716.47
2023-02-09T21:21:27.348Z,101728.81
2023-02-09T21:24:31.197Z,101717.81
2023-02-09T21:27:35.225Z,101731.97
2023-02-09T21:30:42.227Z,101724.56
2023-02-09T21:33:47.715Z,101730.75
2023-02-09T21:36:51.609Z,101737.25
2023-02-09T21:39:56.098Z,101738.38
2023-02-09T21:43:00.326Z,101736.97
2023-02-09T21:46:04.283Z,101740.00
2023-02-09T21:49:09.953Z,101739.72
2023-02-09T21:52:14.074Z,101740.91
2023-02-09T21:55:18.438Z,101749.59
2023-02-09T21:58:22.303Z,101743.97
2023-02-09T22:01:26.206Z,101743.91
2023-02-09T22:04:31.610Z,101741.31
2023-02-09T22:07:36.484Z,101749.88
2023-02-09T22:10:40.330Z,101751.78
2023-02-09T22:13:44.319Z,101751.41
2023-02-09T22:16:48.167Z,101759.19
2023-02-09T22:19:53.412Z,101755.53
2023-02-09T22:22:57.348Z,101752.56
2023-02-09T22:26:01.258Z,101745.28
2023-02-09T22:29:05.074Z,101742.34
2023-02-09T22:32:08.928Z,101745.91
2023-02-09T22:35:14.236Z,101760.91
2023-02-09T22:38:18.056Z,101749.44
2023-02-09T22:41:25.020Z,101750.19
2023-02-09T22:44:30.661Z,101757.16
2023-02-09T22:47:35.176Z,101760.06
2023-02-09T22:50:40.528Z,101763.44
2023-02-09T22:53:44.191Z,101756.72
2023-02-09T22:56:48.035Z,101754.59
2023-02-09T22:59:51.776Z,101759.53
2023-02-09T23:02:55.708Z,101752.03
2023-02-09T23:06:02.532Z,101746.50
2023-02-09T23:09:08.977Z,101751.28
2023-02-09T23:12:12.851Z,101745.47
2023-02-09T23:15:16.813Z,101736.63
2023-02-09T23:18:20.761Z,101737.66
2023-02-09T23:21:30.612Z,101747.31
2023-02-09T23:24:34.391Z,101753.97
2023-02-09T23:27:38.281Z,101751.53
2023-02-09T23:30:42.187Z,101746.03
2023-02-09T23:33:46.747Z,101743.34
2023-02-09T23:36:52.292Z,101745.06
2023-02-09T23:39:56.391Z,101739.97
2023-02-09T23:43:00.369Z,101740.03
2023-02-09T23:46:04.817Z,101738.25
2023-02-09T23:49:08.802Z,101745.47
2023-02-09T23:52:14.208Z,101744.03
2023-02-09T23:55:18.177Z,101755.56
2023-02-09T23:58:22.149Z,101744.88
